Time;durP1;ratioP1;P1;durP2;ratioP2;P2;SDS_P1;SDS_P2;PMS_P1;PMS_P2;Temp;Humidity;BMP_temperature;BMP_pressure;BME280_temperature;BME280_humidity;BME280_pressure;Samples;Min_cycle;Max_cycle;Signal;HPM_P1;HPM_P2
2022/01/25 00:31:17;;;;;;;43.02;15.15;;;;;;;-7.23;87.03;100833.83;1647345;86;21738;-82
2022/01/25 00:34:22;;;;;;;33.30;13.80;;;;;;;-7.27;86.73;100832.19;1667738;86;21360;-81
2022/01/25 00:37:28;;;;;;;37.58;14.33;;;;;;;-7.31;86.87;100841.17;1667713;86;21343;-77
2022/01/25 00:40:33;;;;;;;29.85;14.60;;;;;;;-7.31;86.86;100842.50;1668586;86;21307;-81
2022/01/25 00:43:38;;;;;;;32.42;14.83;;;;;;;-7.33;86.64;100833.73;1668838;86;21336;-80
2022/01/25 00:46:45;;;;;;;32.05;13.78;;;;;;;-7.31;86.88;100834.53;1668125;86;21331;-77
2022/01/25 00:49:51;;;;;;;34.45;13.78;;;;;;;-7.27;86.99;100832.19;1668821;86;21369;-81
2022/01/25 00:56:04;;;;;;;34.03;15.35;;;;;;;-7.22;86.94;100841.73;1668632;86;21185;-81
2022/01/25 00:59:12;;;;;;;33.25;15.38;;;;;;;-7.17;86.65;100845.58;1668924;86;21352;-77
2022/01/25 01:02:20;;;;;;;38.00;14.98;;;;;;;-7.23;85.54;100837.81;1667639;86;21347;-80
2022/01/25 01:05:26;;;;;;;38.38;16.40;;;;;;;-7.30;85.50;100862.84;1668829;86;21827;-78
2022/01/25 01:08:33;;;;;;;35.38;15.00;;;;;;;-7.35;85.48;100852.83;1667936;86;21343;-82
2022/01/25 01:11:53;;;;;;;31.30;15.28;;;;;;;-7.43;85.68;100840.23;1668439;86;21299;-82
2022/01/25 01:42:15;;;;;;;36.23;15.30;;;;;;;-7.41;85.95;100830.44;1664257;86;21253;-80
2022/01/25 01:48:09;;;;;;;34.38;15.65;;;;;;;-7.41;85.77;100837.08;1664383;86;21296;-80
2022/01/25 01:51:26;;;;;;;34.03;14.80;;;;;;;-7.41;85.60;100832.64;1664472;86;21924;-77
2022/01/25 01:54:24;;;;;;;31.57;13.95;;;;;;;-7.39;85.66;100837.89;1664848;86;21817;-77
2022/01/25 01:57:29;;;;;;;35.92;15.00;;;;;;;-7.47;85.49;100828.86;1664171;86;21311;-78
2022/01/25 02:00:44;;;;;;;35.48;14.90;;;;;;;-7.51;85.75;100839.17;1664656;86;21339;-81
2022/01/25 02:03:49;;;;;;;31.75;14.28;;;;;;;-7.52;85.92;100829.01;1664729;86;21169;-78
2022/01/25 02:06:55;;;;;;;39.05;15.63;;;;;;;-7.46;86.13;100825.28;1663940;86;21229;-77
2022/01/25 02:10:01;;;;;;;47.48;16.07;;;;;;;-7.41;86.15;100829.98;1663390;86;21912;-82
2022/01/25 02:13:06;;;;;;;38.10;13.40;;;;;;;-7.41;86.05;100833.97;1664076;86;21316;-81
2022/01/25 02:16:30;;;;;;;37.17;15.60;;;;;;;-7.36;86.08;100833.81;1684798;85;21227;-82
2022/01/25 02:22:43;;;;;;;35.20;15.70;;;;;;;-7.39;85.66;100837.42;1672239;86;21737;-80
2022/01/25 02:25:50;;;;;;;37.28;15.23;;;;;;;-7.50;85.78;100841.77;1738363;82;21911;-78
2022/01/25 02:28:57;;;;;;;35.98;15.03;;;;;;;-7.53;86.04;100847.63;1737252;82;21319;-81
2022/01/25 02:32:02;;;;;;;38.17;16.73;;;;;;;-7.54;86.33;100837.47;1737161;82;21247;-78
2022/01/25 02:35:14;;;;;;;41.35;14.68;;;;;;;-7.48;86.50;100843.94;1767401;81;21277;-78
2022/01/25 02:38:21;;;;;;;37.73;17.02;;;;;;;-7.47;86.46;100840.35;1767419;81;21614;-78
2022/01/25 02:41:26;;;;;;;38.67;15.23;;;;;;;-7.42;86.63;100844.66;1767432;81;21801;-78
2022/01/25 02:44:34;;;;;;;36.23;14.93;;;;;;;-7.33;86.63;100841.70;1767461;81;21845;-78
2022/01/25 02:51:06;;;;;;;46.05;16.02;;;;;;;-7.25;86.22;100838.30;1737052;82;21892;-78
2022/01/25 02:54:13;;;;;;;35.30;15.00;;;;;;;-7.21;86.36;100841.27;1736960;82;21369;-78
2022/01/25 02:57:19;;;;;;;34.98;14.15;;;;;;;-7.14;86.55;100840.16;1737152;82;21199;-78
2022/01/25 03:00:25;;;;;;;37.17;14.40;;;;;;;-7.14;86.65;100830.86;1735596;82;21392;-78
2022/01/25 03:03:29;;;;;;;44.60;16.73;;;;;;;-7.18;86.90;100830.55;1735804;82;21332;-78
2022/01/25 03:06:35;;;;;;;40.08;17.37;;;;;;;-7.26;87.18;100836.11;1736975;82;21996;-78
2022/01/25 03:09:41;;;;;;;38.02;15.08;;;;;;;-7.31;87.59;100839.84;1736385;82;21852;-78
2022/01/25 03:12:50;;;;;;;41.18;16.07;;;;;;;-7.31;88.01;100842.04;1737076;82;22505;-78
2022/01/25 03:15:58;;;;;;;39.38;14.50;;;;;;;-7.28;88.29;100839.76;1737143;82;21317;-78
2022/01/25 03:19:03;;;;;;;38.48;17.20;;;;;;;-7.22;88.56;100829.77;1727747;82;21412;-78
2022/01/25 03:22:32;;;;;;;37.85;14.20;;;;;;;-7.18;88.47;100827.02;1707717;84;22682;-78
2022/01/25 03:25:24;;;;;;;37.00;14.28;;;;;;;-7.17;88.49;100836.27;1706416;84;21366;-78
2022/01/25 03:28:29;;;;;;;38.63;13.90;;;;;;;-7.15;88.43;100826.90;1707802;84;21218;-78
2022/01/25 03:31:34;;;;;;;33.50;12.80;;;;;;;-7.11;88.33;100832.06;1707703;84;21198;-79
2022/01/25 03:34:41;;;;;;;36.83;15.43;;;;;;;-7.10;87.96;100828.51;1711356;82;21856;-79
2022/01/25 03:37:47;;;;;;;33.83;14.90;;;;;;;-7.08;87.71;100838.62;1717691;83;21245;-78
2022/01/25 03:40:53;;;;;;;35.73;16.57;;;;;;;-7.07;87.41;100835.03;1716421;83;21336;-78
2022/01/25 03:43:58;;;;;;;37.75;15.95;;;;;;;-7.09;87.38;100830.23;1717850;83;21812;-78
2022/01/25 03:47:08;;;;;;;33.50;15.60;;;;;;;-7.11;87.46;100832.06;1716789;83;21216;-78
2022/01/25 03:50:14;;;;;;;32.93;14.38;;;;;;;-7.09;87.65;100835.55;1739994;82;21841;-78
2022/01/25 03:53:19;;;;;;;35.85;15.45;;;;;;;-7.04;87.76;100837.59;1746110;82;21223;-78
2022/01/25 03:56:24;;;;;;;33.63;14.90;;;;;;;-6.99;87.75;100823.68;1747422;82;21291;-78
2022/01/25 03:59:30;;;;;;;48.17;16.62;;;;;;;-7.01;87.66;100829.52;1747356;82;21235;-78
2022/01/25 04:02:39;;;;;;;32.20;13.35;;;;;;;-7.01;87.65;100835.27;1747402;82;21295;-78
2022/01/25 04:08:50;;;;;;;38.15;14.45;;;;;;;-6.97;87.66;100844.89;1747423;82;21204;-78
2022/01/25 04:11:55;;;;;;;48.85;17.67;;;;;;;-6.99;87.72;100846.28;1747460;82;21679;-78
2022/01/25 04:15:03;;;;;;;38.75;15.72;;;;;;;-7.02;87.61;100845.05;1746036;82;21187;-78
2022/01/25 04:25:01;;;;;;;37.17;17.00;;;;;;;-7.16;87.94;100838.46;1746191;82;21337;-79
2022/01/25 04:27:49;;;;;;;42.27;17.67;;;;;;;-7.20;88.08;100840.34;1747635;82;21599;-78
2022/01/25 04:30:55;;;;;;;50.05;17.23;;;;;;;-7.25;88.26;100831.66;1746712;82;21875;-78
2022/01/25 04:34:24;;;;;;;37.25;14.63;;;;;;;-7.27;88.54;100837.03;1747321;82;21298;-78
2022/01/25 04:54:26;;;;;;;48.20;17.17;;;;;;;-7.09;89.12;100854.17;1717672;83;21223;-78
2022/01/25 05:00:14;;;;;;;45.52;16.85;;;;;;;-7.08;88.79;100849.25;1745650;82;21779;-78
2022/01/25 05:03:19;;;;;;;39.98;15.75;;;;;;;-7.10;88.71;100841.80;1747322;82;21362;-78
2022/01/25 05:06:21;;;;;;;42.03;16.35;;;;;;;-7.04;88.81;100849.56;1745915;82;21305;-78
2022/01/25 05:09:27;;;;;;;50.00;17.95;;;;;;;-6.99;88.61;100852.06;1747352;82;21291;-78
2022/01/25 05:12:40;;;;;;;52.65;19.85;;;;;;;-6.99;88.34;100852.94;1734838;82;21187;-78
2022/01/25 05:18:51;;;;;;;53.37;19.70;;;;;;;-6.98;88.35;100849.81;1723744;83;21302;-78
2022/01/25 05:25:22;;;;;;;35.73;15.78;;;;;;;-6.78;88.61;100847.78;1725461;83;21306;-77
2022/01/25 05:28:28;;;;;;;45.50;17.40;;;;;;;-6.66;88.02;100851.36;1735191;82;21711;-77
2022/01/25 05:31:34;;;;;;;37.78;15.25;;;;;;;-6.75;87.23;100868.50;1745772;82;21878;-77
2022/01/25 05:34:39;;;;;;;40.60;15.03;;;;;;;-6.83;87.19;100866.56;1740724;82;21231;-77
2022/01/25 05:37:45;;;;;;;39.92;15.65;;;;;;;-6.87;87.12;100868.05;1745930;80;21825;-77
2022/01/25 05:41:02;;;;;;;40.52;16.90;;;;;;;-6.90;87.18;100878.36;1730071;82;21294;-77
2022/01/25 05:47:20;;;;;;;37.88;15.10;;;;;;;-6.90;86.86;100880.15;1745910;82;21325;-78
2022/01/25 05:50:27;;;;;;;48.45;17.17;;;;;;;-6.91;86.94;100877.95;1736918;82;21338;-78
2022/01/25 05:53:32;;;;;;;43.25;16.80;;;;;;;-6.87;86.93;100877.36;1735777;82;21298;-83
2022/01/25 05:56:38;;;;;;;42.30;16.42;;;;;;;-6.86;86.87;100881.32;1724008;82;21751;-78
2022/01/25 05:59:43;;;;;;;39.63;16.15;;;;;;;-6.82;86.92;100874.98;1728110;82;21226;-78
2022/01/25 06:02:54;;;;;;;43.28;17.98;;;;;;;-6.74;86.92;100867.58;1725134;82;21238;-78
2022/01/25 06:05:58;;;;;;;36.35;15.80;;;;;;;-6.68;86.54;100869.15;1729199;82;21355;-78
2022/01/25 06:09:06;;;;;;;48.23;17.20;;;;;;;-6.69;86.25;100864.30;1728606;82;21333;-78
2022/01/25 06:12:13;;;;;;;43.30;17.05;;;;;;;-6.67;86.16;100865.59;1725149;82;21330;-78
2022/01/25 06:15:20;;;;;;;37.48;16.20;;;;;;;-6.59;86.11;100865.30;1728744;82;21302;-78
2022/01/25 06:18:29;;;;;;;41.05;16.35;;;;;;;-6.54;85.78;100855.36;1717691;82;21451;-79
2022/01/25 06:21:36;;;;;;;37.90;15.75;;;;;;;-6.48;85.54;100856.49;1729385;82;21389;-79
2022/01/25 06:24:41;;;;;;;46.25;17.37;;;;;;;-6.46;85.37;100853.30;1721891;82;21357;-79
2022/01/25 06:30:27;;;;;;;37.08;17.17;;;;;;;-6.38;85.04;100853.89;1826895;76;28332;-79
2022/01/25 06:33:37;;;;;;;44.95;17.10;;;;;;;-6.38;85.02;100852.56;1782136;79;21256;-77
2022/01/25 06:36:42;;;;;;;41.92;16.35;;;;;;;-6.30;84.79;100852.30;1781193;79;21320;-77
2022/01/25 06:39:49;;;;;;;50.67;17.40;;;;;;;-6.26;84.42;100856.09;1781615;79;21284;-78
2022/01/25 06:42:54;;;;;;;36.85;16.30;;;;;;;-6.18;84.45;100855.35;1779201;79;21156;-77
2022/01/25 06:46:03;;;;;;;45.50;17.20;;;;;;;-6.08;84.16;100850.55;1779989;79;21287;-77
2022/01/25 06:49:07;;;;;;;40.38;17.82;;;;;;;-5.99;83.86;100852.86;1780501;79;21172;-78
2022/01/25 06:52:13;;;;;;;42.78;16.57;;;;;;;-5.92;83.56;100846.86;1779547;78;21193;-79
2022/01/25 06:55:23;;;;;;;44.00;15.72;;;;;;;-5.79;83.27;100853.39;1779703;79;21260;-78
2022/01/25 06:58:29;;;;;;;38.17;16.70;;;;;;;-5.73;82.71;100849.17;1777228;78;21315;-78
2022/01/25 07:01:36;;;;;;;33.35;15.13;;;;;;;-5.67;82.50;100844.06;1774614;79;21675;-83
2022/01/25 07:04:43;;;;;;;37.95;16.35;;;;;;;-5.56;82.12;100844.95;1765098;79;21254;-78
2022/01/25 07:07:48;;;;;;;34.90;15.15;;;;;;;-5.48;81.97;100833.53;1780838;79;21170;-79
2022/01/25 07:10:55;;;;;;;41.02;16.97;;;;;;;-5.38;80.94;100840.22;1776647;79;21322;-78
2022/01/25 07:14:00;;;;;;;38.58;15.58;;;;;;;-5.44;79.81;100841.81;1777772;79;21775;-79
2022/01/25 07:17:05;;;;;;;43.25;14.43;;;;;;;-5.53;79.36;100844.38;1780711;79;21304;-78
2022/01/25 07:20:12;;;;;;;35.03;15.15;;;;;;;-5.52;79.59;100848.77;1777330;79;21314;-79
2022/01/25 07:23:18;;;;;;;39.38;15.48;;;;;;;-5.42;79.67;100847.47;1720113;81;21327;-78
2022/01/25 07:26:24;;;;;;;36.90;14.25;;;;;;;-5.38;79.12;100844.69;1729490;81;21207;-78
2022/01/25 07:29:31;;;;;;;46.55;17.05;;;;;;;-5.38;78.38;100854.89;1728707;81;21209;-79
2022/01/25 07:32:36;;;;;;;36.00;15.78;;;;;;;-5.46;78.15;100849.88;1712814;82;21542;-78
2022/01/25 07:35:45;;;;;;;38.30;16.17;;;;;;;-5.44;77.93;100860.48;1718281;82;21235;-79
2022/01/25 07:38:56;;;;;;;37.23;15.53;;;;;;;-5.51;77.90;100865.17;1715281;82;21196;-81
2022/01/25 07:42:04;;;;;;;34.92;15.00;;;;;;;-5.50;78.10;100864.73;1718721;82;21598;-79
2022/01/25 07:45:19;;;;;;;33.83;14.60;;;;;;;-5.49;77.92;100871.33;1717681;82;21177;-81
2022/01/25 07:48:31;;;;;;;41.30;13.58;;;;;;;-5.44;78.00;100870.67;1717913;82;21700;-78
2022/01/25 07:51:39;;;;;;;30.12;13.95;;;;;;;-5.33;77.51;100869.37;1717113;82;21919;-81
2022/01/25 07:54:45;;;;;;;30.90;13.93;;;;;;;-5.28;77.24;100882.05;1716600;82;21297;-84
2022/01/25 07:57:49;;;;;;;28.77;13.58;;;;;;;-5.38;76.95;100870.88;1722692;82;21314;-82
2022/01/25 08:00:56;;;;;;;30.68;13.95;;;;;;;-5.48;77.01;100873.05;1718862;82;21292;-82
2022/01/25 08:04:01;;;;;;;28.35;12.75;;;;;;;-5.44;77.16;100866.67;1718983;82;21900;-82
2022/01/25 08:07:07;;;;;;;30.17;13.10;;;;;;;-5.43;76.97;100883.53;1717821;82;21819;-81
2022/01/25 08:10:19;;;;;;;32.95;13.53;;;;;;;-5.37;77.30;100878.41;1720517;82;21203;-83
2022/01/25 08:13:29;;;;;;;36.95;14.43;;;;;;;-5.31;76.92;100872.86;1704031;82;21548;-80
2022/01/25 08:16:38;;;;;;;28.77;12.82;;;;;;;-5.15;77.09;100880.16;1718171;82;21304;-82
2022/01/25 08:19:50;;;;;;;28.45;14.47;;;;;;;-4.94;76.33;100884.19;1721287;82;21287;-83
2022/01/25 08:22:57;;;;;;;31.02;12.28;;;;;;;-4.87;75.78;100883.48;1681691;84;21189;-79
2022/01/25 08:26:13;;;;;;;30.65;12.75;;;;;;;-4.77;75.57;100881.69;1721557;82;21864;-81
2022/01/25 08:29:21;;;;;;;23.15;11.18;;;;;;;-4.68;75.12;100875.09;1719403;82;21412;-80
2022/01/25 08:32:28;;;;;;;25.32;12.53;;;;;;;-4.62;74.43;100873.48;1714589;82;21319;-80
2022/01/25 08:35:44;;;;;;;31.37;13.98;;;;;;;-4.71;74.11;100880.55;1714935;82;21252;-81
2022/01/25 08:38:51;;;;;;;26.20;11.48;;;;;;;-4.77;74.39;100873.69;1719870;82;21292;-82
2022/01/25 08:42:06;;;;;;;32.55;13.38;;;;;;;-4.61;75.07;100863.23;1715853;82;21733;-80
2022/01/25 08:45:18;;;;;;;21.57;9.90;;;;;;;-4.38;74.70;100868.41;1717609;82;21359;-81
2022/01/25 08:48:26;;;;;;;24.55;11.05;;;;;;;-4.28;73.75;100863.98;1718668;82;22215;-82
2022/01/25 08:51:34;;;;;;;25.75;10.58;;;;;;;-4.29;72.95;100860.92;1718035;82;21362;-80
2022/01/25 08:54:44;;;;;;;22.07;10.13;;;;;;;-4.26;73.15;100869.67;1718811;82;21363;-82
2022/01/25 08:57:50;;;;;;;23.57;10.78;;;;;;;-4.20;72.52;100873.39;1719722;82;21332;-79
2022/01/25 09:01:00;;;;;;;24.80;10.30;;;;;;;-4.15;71.86;100869.19;1716944;82;21814;-80
2022/01/25 09:04:07;;;;;;;22.85;10.63;;;;;;;-4.18;71.22;100857.32;1689158;82;21193;-78
2022/01/25 09:07:13;;;;;;;24.37;10.18;;;;;;;-4.39;71.70;100859.13;1715312;82;21654;-80
2022/01/25 09:10:21;;;;;;;24.65;10.53;;;;;;;-4.50;71.51;100855.61;1718418;82;22015;-79
2022/01/25 09:13:29;;;;;;;19.10;9.50;;;;;;;-4.60;71.49;100848.94;1719753;82;21864;-79
2022/01/25 09:16:35;;;;;;;25.80;10.48;;;;;;;-4.68;71.96;100859.08;1707043;83;21874;-78
2022/01/25 09:19:41;;;;;;;24.95;10.32;;;;;;;-4.64;72.08;100857.55;1712948;82;21698;-79
2022/01/25 09:22:49;;;;;;;28.98;10.30;;;;;;;-4.66;72.00;100862.53;1716439;82;21335;-80
2022/01/25 09:25:56;;;;;;;20.45;9.30;;;;;;;-4.64;71.87;100855.34;1713114;82;21220;-79
2022/01/25 09:29:02;;;;;;;22.35;9.03;;;;;;;-4.60;72.07;100856.95;1707657;83;21182;-82
2022/01/25 09:32:09;;;;;;;21.10;10.18;;;;;;;-4.38;72.26;100858.19;1716144;82;21666;-78
2022/01/25 09:35:17;;;;;;;26.25;9.45;;;;;;;-4.31;71.27;100851.66;1718512;82;21366;-81
2022/01/25 09:38:23;;;;;;;22.87;9.80;;;;;;;-4.41;70.74;100857.02;1717640;82;21158;-82
2022/01/25 09:41:29;;;;;;;20.00;9.20;;;;;;;-4.47;71.01;100844.80;1718664;82;21316;-81
2022/01/25 09:44:34;;;;;;;19.05;9.78;;;;;;;-4.45;70.86;100840.25;1722774;82;21449;-84
2022/01/25 09:47:40;;;;;;;21.80;9.58;;;;;;;-4.30;70.88;100840.50;1718325;82;21295;-83
2022/01/25 09:50:47;;;;;;;23.42;10.03;;;;;;;-4.06;70.65;100843.85;1703985;82;21351;-82
2022/01/25 09:53:51;;;;;;;21.00;9.18;;;;;;;-3.99;69.02;100840.84;1764025;80;21287;-83
2022/01/25 09:56:57;;;;;;;20.48;9.55;;;;;;;-4.08;68.94;100834.59;1760223;79;21181;-82
2022/01/25 10:00:03;;;;;;;20.12;9.18;;;;;;;-4.18;68.74;100833.27;1707299;83;21801;-82
2022/01/25 10:03:18;;;;;;;30.02;10.38;;;;;;;-4.25;69.01;100839.81;1714665;82;21231;-82
2022/01/25 10:06:25;;;;;;;20.43;8.75;;;;;;;-4.35;69.41;100841.17;1700997;83;21967;-82
2022/01/25 10:09:34;;;;;;;19.23;8.53;;;;;;;-4.33;69.98;100835.28;1717900;82;21507;-79
2022/01/25 10:12:41;;;;;;;18.62;8.95;;;;;;;-4.18;69.73;100834.61;1714317;82;21197;-80
2022/01/25 10:15:47;;;;;;;20.10;8.65;;;;;;;-4.12;69.32;100831.65;1716311;82;21386;-79
2022/01/25 10:18:59;;;;;;;19.05;9.80;;;;;;;-4.05;69.33;100823.73;1717454;82;21339;-80
2022/01/25 10:22:07;;;;;;;16.93;7.97;;;;;;;-4.04;68.94;100829.50;1764085;80;21612;-79
2022/01/25 10:25:12;;;;;;;17.67;8.05;;;;;;;-3.94;69.42;100830.80;1765567;79;21272;-79
2022/01/25 10:28:20;;;;;;;21.10;9.30;;;;;;;-3.89;68.96;100823.43;1712960;81;21275;-79
2022/01/25 10:31:25;;;;;;;20.35;8.70;;;;;;;-3.81;69.11;100824.86;1733439;81;21322;-79
2022/01/25 10:34:46;;;;;;;19.67;9.90;;;;;;;-3.77;69.10;100815.76;1771718;79;21832;-80
2022/01/25 10:37:51;;;;;;;15.83;8.15;;;;;;;-3.78;69.92;100816.70;1773538;79;21207;-80
2022/01/25 10:41:05;;;;;;;16.62;8.63;;;;;;;-3.56;70.09;100804.52;1770563;78;21462;-83
2022/01/25 10:44:14;;;;;;;18.10;8.58;;;;;;;-3.33;69.60;100806.94;1773794;78;21218;-83
2022/01/25 10:47:21;;;;;;;18.37;8.78;;;;;;;-3.12;68.23;100804.50;1772872;79;21298;-83
2022/01/25 10:50:46;;;;;;;17.42;9.10;;;;;;;-3.10;67.52;100796.42;1772768;79;21311;-83
2022/01/25 10:53:42;;;;;;;19.23;8.95;;;;;;;-3.12;67.60;100800.48;1772353;79;21299;-84
2022/01/25 10:57:02;;;;;;;22.42;10.90;;;;;;;-3.03;67.58;100805.86;1774890;79;21889;-83
2022/01/25 11:00:16;;;;;;;19.07;9.38;;;;;;;-2.89;67.87;100795.78;1773352;79;21299;-83
2022/01/25 11:03:36;;;;;;;23.90;10.68;;;;;;;-2.68;67.11;100795.12;1728754;81;21200;-84
2022/01/25 11:06:42;;;;;;;21.30;9.23;;;;;;;-2.65;66.66;100788.28;1730626;81;21332;-83
2022/01/25 11:09:53;;;;;;;18.95;9.33;;;;;;;-2.54;66.29;100788.60;1728604;81;21738;-82
2022/01/25 11:13:04;;;;;;;18.98;8.75;;;;;;;-2.47;65.95;100783.77;1731625;81;21271;-80
2022/01/25 11:16:10;;;;;;;20.65;9.73;;;;;;;-2.55;65.47;100783.30;1711314;81;21326;-81
2022/01/25 11:19:15;;;;;;;17.45;8.78;;;;;;;-2.70;65.77;100781.83;1726102;82;21311;-80
2022/01/25 11:22:21;;;;;;;20.15;9.20;;;;;;;-2.68;66.10;100781.30;1725011;82;21664;-80
2022/01/25 11:25:27;;;;;;;21.05;10.43;;;;;;;-2.63;66.20;100775.70;1726341;82;21545;-79
2022/01/25 11:28:33;;;;;;;22.90;9.93;;;;;;;-2.51;66.09;100775.50;1703347;83;21314;-79
2022/01/25 11:31:40;;;;;;;21.55;9.93;;;;;;;-2.43;65.34;100770.13;1713925;82;21200;-84
2022/01/25 11:34:48;;;;;;;15.13;8.68;;;;;;;-2.49;65.11;100768.23;1700591;81;21329;-82
2022/01/25 11:37:59;;;;;;;14.90;8.15;;;;;;;-2.67;65.31;100770.97;1732358;81;21284;-82
2022/01/25 11:41:05;;;;;;;14.65;9.08;;;;;;;-2.72;66.37;100773.50;1729401;81;21308;-85
2022/01/25 11:44:29;;;;;;;17.50;9.68;;;;;;;-2.63;66.47;100771.67;1716837;82;21308;-85
2022/01/25 11:47:44;;;;;;;20.00;9.70;;;;;;;-2.50;66.43;100767.85;1774949;79;21330;-85
2022/01/25 11:50:54;;;;;;;15.45;8.35;;;;;;;-2.38;65.53;100773.42;1774906;79;21823;-85
2022/01/25 11:54:01;;;;;;;16.60;8.95;;;;;;;-2.37;64.67;100775.63;1776613;79;21275;-84
2022/01/25 11:57:19;;;;;;;12.88;7.28;;;;;;;-2.50;64.31;100771.87;1776144;79;21208;-83
2022/01/25 12:00:24;;;;;;;12.85;7.28;;;;;;;-2.55;64.27;100763.22;1764452;79;21339;-84
2022/01/25 12:03:40;;;;;;;15.78;9.53;;;;;;;-2.62;64.17;100759.53;1756149;79;21279;-83
2022/01/25 12:06:59;;;;;;;15.38;8.55;;;;;;;-2.74;64.21;100761.98;1775757;79;21446;-83
2022/01/25 12:10:12;;;;;;;26.90;8.78;;;;;;;-2.83;64.04;100761.98;1771794;78;21283;-83
2022/01/25 12:13:29;;;;;;;24.20;9.58;;;;;;;-2.81;64.39;100764.61;1772694;78;21801;-84
2022/01/25 12:16:35;;;;;;;11.95;7.50;;;;;;;-2.78;64.70;100750.56;1771613;79;21322;-84
2022/01/25 12:19:59;;;;;;;17.67;8.38;;;;;;;-3.00;64.44;100752.17;1774574;79;21252;-84
2022/01/25 12:23:19;;;;;;;16.37;8.30;;;;;;;-3.25;65.03;100735.63;1782179;79;21707;-84
2022/01/25 12:26:22;;;;;;;14.90;7.95;;;;;;;-3.16;65.91;100741.85;1776194;79;21177;-80
2022/01/25 12:29:47;;;;;;;20.55;8.35;;;;;;;-3.07;66.05;100726.66;1762014;79;21303;-80
2022/01/25 12:33:05;;;;;;;12.80;6.87;;;;;;;-3.14;65.77;100725.27;1776333;79;21291;-80
2022/01/25 12:36:13;;;;;;;19.07;9.10;;;;;;;-3.20;65.90;100721.10;1768160;80;21299;-79
2022/01/25 12:39:19;;;;;;;15.10;8.38;;;;;;;-3.26;66.24;100732.56;1769257;80;21181;-81
2022/01/25 12:42:25;;;;;;;26.35;8.13;;;;;;;-3.18;66.52;100729.90;1765633;79;21955;-80
2022/01/25 12:45:34;;;;;;;16.73;8.10;;;;;;;-3.15;65.95;100729.75;1763472;80;21568;-81
2022/01/25 12:48:44;;;;;;;19.07;8.93;;;;;;;-3.27;65.45;100729.03;1769372;80;21273;-81
2022/01/25 12:51:52;;;;;;;16.30;8.48;;;;;;;-3.35;65.40;100729.88;1769104;80;21247;-80
2022/01/25 12:55:09;;;;;;;20.25;9.83;;;;;;;-3.45;65.46;100728.63;1764616;79;21276;-81
2022/01/25 12:58:14;;;;;;;17.62;9.03;;;;;;;-3.57;65.63;100725.25;1772054;80;21824;-80
2022/01/25 13:01:21;;;;;;;19.77;8.70;;;;;;;-3.72;65.85;100729.04;1712327;83;21336;-80
2022/01/25 13:04:28;;;;;;;17.17;8.78;;;;;;;-3.82;66.36;100727.77;1705909;83;21275;-83
2022/01/25 13:07:33;;;;;;;17.23;9.18;;;;;;;-3.82;66.60;100724.23;1771441;80;21295;-84
2022/01/25 13:10:39;;;;;;;20.45;10.13;;;;;;;-3.92;67.05;100719.80;1769318;80;21508;-81
2022/01/25 13:13:58;;;;;;;20.65;9.55;;;;;;;-3.92;67.47;100724.67;1770511;79;21795;-84
2022/01/25 13:17:25;;;;;;;15.93;8.80;;;;;;;-3.93;67.74;100726.09;1707756;82;21321;-85
2022/01/25 13:20:30;;;;;;;22.30;8.98;;;;;;;-4.00;67.60;100729.55;1763382;80;21311;-80
2022/01/25 13:23:35;;;;;;;17.85;9.25;;;;;;;-4.04;68.19;100727.95;1762978;80;21308;-84
2022/01/25 13:26:42;;;;;;;24.50;8.95;;;;;;;-3.97;68.51;100725.37;1769908;80;21869;-80
2022/01/25 13:33:24;;;;;;;17.98;9.93;;;;;;;-4.10;68.23;100725.55;1656844;86;21177;-80
2022/01/25 13:36:31;;;;;;;17.62;9.43;;;;;;;-4.11;68.76;100728.70;1699020;81;21247;-80
2022/01/25 13:39:40;;;;;;;21.23;10.93;;;;;;;-3.96;68.65;100724.89;1726354;82;21793;-82
2022/01/25 13:42:57;;;;;;;19.42;10.13;;;;;;;-3.88;68.40;100721.39;1718343;81;21714;-84
2022/01/25 13:45:57;;;;;;;20.40;9.08;;;;;;;-3.87;68.38;100716.44;1723680;81;21334;-81
2022/01/25 13:48:50;;;;;;;18.75;9.23;;;;;;;-3.86;68.43;100716.38;1723820;81;21317;-84
2022/01/25 13:51:47;;;;;;;17.00;8.33;;;;;;;-3.83;68.44;100715.34;1734422;81;21349;-80
2022/01/25 13:54:52;;;;;;;13.53;8.53;;;;;;;-3.88;68.41;100708.89;1723996;81;21326;-84
2022/01/25 13:57:58;;;;;;;21.65;9.98;;;;;;;-3.86;68.67;100717.72;1722893;82;21665;-80
2022/01/25 14:01:07;;;;;;;19.67;8.80;;;;;;;-3.90;68.55;100715.27;1724044;81;21192;-80
2022/01/25 14:04:28;;;;;;;19.62;10.25;;;;;;;-4.02;68.81;100718.05;1721911;81;21176;-84
2022/01/25 14:07:33;;;;;;;18.07;9.90;;;;;;;-4.05;69.14;100718.19;1726448;81;21783;-80
2022/01/25 14:10:43;;;;;;;20.25;8.83;;;;;;;-4.05;69.25;100714.65;1727032;81;21346;-84
2022/01/25 14:23:54;;;;;;;20.30;10.08;;;;;;;-4.04;69.12;100724.42;1683475;84;21386;-83
2022/01/25 14:27:00;;;;;;;27.48;10.35;;;;;;;-4.09;69.22;100723.75;1686917;84;22207;-80
2022/01/25 14:30:09;;;;;;;31.45;9.95;;;;;;;-4.15;69.41;100719.09;1653186;86;21216;-78
2022/01/25 14:33:20;;;;;;;21.95;10.20;;;;;;;-4.22;69.57;100710.99;1689729;83;21323;-83
2022/01/25 14:36:26;;;;;;;23.75;10.32;;;;;;;-4.29;69.97;100710.88;1685672;84;21337;-83
2022/01/25 14:39:32;;;;;;;21.40;10.98;;;;;;;-4.34;70.28;100699.54;1668573;84;21346;-79
2022/01/25 14:42:38;;;;;;;29.00;10.85;;;;;;;-4.40;70.38;100704.70;1659302;84;21363;-80
2022/01/25 14:45:43;;;;;;;24.57;11.18;;;;;;;-4.50;70.74;100702.55;1667571;86;21889;-80
2022/01/25 14:49:13;;;;;;;32.00;11.20;;;;;;;-4.48;71.27;100713.53;1695959;83;21914;-83
2022/01/25 14:52:14;;;;;;;25.85;10.60;;;;;;;-4.30;71.23;100718.49;1650805;86;21381;-80
2022/01/25 14:55:28;;;;;;;17.00;9.05;;;;;;;-4.21;70.88;100717.20;1669839;86;21350;-82
2022/01/25 15:01:58;;;;;;;27.45;13.38;;;;;;;-4.40;70.72;100723.41;1670210;86;21216;-81
2022/01/25 15:05:04;;;;;;;21.15;11.08;;;;;;;-4.51;71.05;100719.52;1669652;86;21210;-83
2022/01/25 15:08:11;;;;;;;25.62;12.60;;;;;;;-4.46;71.45;100718.83;1670140;86;21328;-81
2022/01/25 15:11:16;;;;;;;20.43;10.05;;;;;;;-4.46;71.55;100718.83;1670465;86;21348;-83
2022/01/25 15:14:23;;;;;;;22.52;10.43;;;;;;;-4.43;71.82;100712.85;1670434;86;21317;-80
2022/01/25 15:17:28;;;;;;;23.35;11.03;;;;;;;-4.44;72.14;100713.80;1669675;85;21201;-80
2022/01/25 15:20:34;;;;;;;36.08;12.13;;;;;;;-4.45;72.28;100711.20;1697409;84;21224;-80
2022/01/25 15:23:39;;;;;;;26.45;11.93;;;;;;;-4.39;72.33;100710.91;1667908;86;21339;-80
2022/01/25 15:26:49;;;;;;;36.30;14.07;;;;;;;-4.27;72.06;100704.14;1697026;84;21343;-83
2022/01/25 15:29:52;;;;;;;30.17;14.00;;;;;;;-4.21;71.87;100707.84;1667810;86;21311;-80
2022/01/25 15:32:56;;;;;;;22.60;10.20;;;;;;;-4.17;71.77;100713.45;1666364;86;21847;-83
2022/01/25 15:36:02;;;;;;;29.30;12.05;;;;;;;-4.15;71.58;100724.44;1665316;86;21333;-82
2022/01/25 15:39:06;;;;;;;28.67;11.95;;;;;;;-4.24;71.59;100720.87;1665382;86;21851;-83
2022/01/25 15:42:13;;;;;;;28.87;12.95;;;;;;;-4.24;71.93;100726.20;1665202;86;21338;-83
2022/01/25 15:45:28;;;;;;;29.50;12.80;;;;;;;-4.18;71.97;100723.74;1698935;84;21821;-79
2022/01/25 15:48:30;;;;;;;32.55;14.00;;;;;;;-4.18;71.92;100723.27;1683096;84;21322;-81
2022/01/25 15:51:34;;;;;;;42.93;20.95;;;;;;;-4.27;71.81;100721.03;1698964;84;21228;-79
2022/01/25 15:54:41;;;;;;;38.40;16.62;;;;;;;-4.28;72.03;100731.77;1699070;84;21160;-83
2022/01/25 15:57:47;;;;;;;36.25;15.15;;;;;;;-4.23;72.22;100723.09;1698302;84;21344;-79
2022/01/25 16:00:53;;;;;;;36.48;13.43;;;;;;;-4.18;72.06;100721.08;1698868;84;21334;-82
2022/01/25 16:03:58;;;;;;;29.02;12.33;;;;;;;-4.17;71.93;100710.30;1676547;84;21196;-83
2022/01/25 16:07:05;;;;;;;23.22;10.60;;;;;;;-4.28;71.80;100705.05;1698962;84;21895;-83
2022/01/25 16:10:12;;;;;;;25.48;12.45;;;;;;;-4.40;72.08;100705.18;1694706;84;21192;-80
2022/01/25 16:13:17;;;;;;;27.13;14.13;;;;;;;-4.53;72.44;100708.88;1698908;84;21797;-79
2022/01/25 16:16:21;;;;;;;33.67;16.07;;;;;;;-4.57;72.86;100720.63;1698927;84;21362;-79
2022/01/25 16:19:27;;;;;;;24.12;11.53;;;;;;;-4.52;73.12;100718.62;1698778;84;21199;-80
2022/01/25 16:22:32;;;;;;;45.10;18.40;;;;;;;-4.49;73.37;100724.30;1698724;84;21334;-79
2022/01/25 16:25:37;;;;;;;167.75;59.55;;;;;;;-4.41;73.60;100728.35;1688381;84;21307;-83